createdAt,value
2018-09-26T00:00:56.283Z,102182.00
2018-09-26T00:03:28.328Z,102177.00
2018-09-26T00:05:55.958Z,102177.00
2018-09-26T00:08:23.501Z,102177.00
2018-09-26T00:10:51.397Z,102180.00
2018-09-26T00:13:18.942Z,102180.00
2018-09-26T00:15:46.684Z,102171.00
2018-09-26T00:18:14.798Z,102173.00
2018-09-26T00:20:42.381Z,102170.00
2018-09-26T00:23:09.929Z,102166.00
2018-09-26T00:25:37.576Z,102168.00
2018-09-26T00:28:05.853Z,102174.00
2018-09-26T00:30:33.633Z,102174.00
2018-09-26T00:33:01.303Z,102182.00
2018-09-26T00:35:29.016Z,102189.00
2018-09-26T00:37:56.551Z,102188.00
2018-09-26T00:40:24.102Z,102181.00
2018-09-26T00:42:51.989Z,102174.00
2018-09-26T00:45:19.553Z,102178.00
2018-09-26T00:47:47.189Z,102179.00
2018-09-26T00:50:14.884Z,102176.00
2018-09-26T00:52:42.534Z,102177.00
2018-09-26T00:55:10.129Z,102167.00
2018-09-26T00:57:37.765Z,102177.00
2018-09-26T01:00:05.560Z,102183.00
2018-09-26T01:02:33.097Z,102172.00
2018-09-26T01:05:00.904Z,102180.00
2018-09-26T01:07:28.467Z,102182.00
2018-09-26T01:09:56.247Z,102183.00
2018-09-26T01:12:23.815Z,102190.00
2018-09-26T01:14:51.374Z,102189.00
2018-09-26T01:17:19.258Z,102182.00
2018-09-26T01:19:46.848Z,102183.00
2018-09-26T01:22:14.413Z,102182.00
2018-09-26T01:24:42.049Z,102187.00
2018-09-26T01:27:09.637Z,102181.00
2018-09-26T01:29:37.276Z,102186.00
2018-09-26T01:32:08.602Z,102195.00
2018-09-26T01:34:36.115Z,102190.00
2018-09-26T01:37:03.920Z,102188.00
2018-09-26T01:39:31.732Z,102191.00
2018-09-26T01:41:59.373Z,102192.00
2018-09-26T01:44:26.984Z,102190.00
2018-09-26T01:46:54.833Z,102195.00
2018-09-26T01:49:22.454Z,102193.00
2018-09-26T01:51:50.018Z,102190.00
2018-09-26T01:54:17.842Z,102185.00
2018-09-26T01:56:45.428Z,102183.00
2018-09-26T01:59:12.985Z,102182.00
2018-09-26T02:01:41.028Z,102174.00
2018-09-26T02:04:08.556Z,102162.00
2018-09-26T02:06:36.116Z,102159.00
2018-09-26T02:09:07.634Z,102156.00
2018-09-26T02:11:35.200Z,102156.00
2018-09-26T02:14:02.860Z,102149.00
2018-09-26T02:16:30.731Z,102147.00
2018-09-26T02:18:58.320Z,102140.00
2018-09-26T02:21:25.879Z,102130.00
2018-09-26T02:23:53.504Z,102127.00
2018-09-26T02:26:21.063Z,102128.00
2018-09-26T02:28:48.648Z,102115.00
2018-09-26T02:31:16.516Z,102112.00
2018-09-26T02:33:44.261Z,102110.00
2018-09-26T02:36:13.099Z,102105.00
2018-09-26T02:38:40.645Z,102105.00
2018-09-26T02:41:08.200Z,102106.00
2018-09-26T02:43:36.072Z,102110.00
2018-09-26T02:46:03.659Z,102105.00
2018-09-26T02:48:37.456Z,102101.00
2018-09-26T02:51:05.100Z,102107.00
2018-09-26T02:53:32.715Z,102106.00
2018-09-26T02:56:00.777Z,102111.00
2018-09-26T02:58:28.349Z,102108.00
2018-09-26T03:00:55.952Z,102105.00
2018-09-26T03:03:23.662Z,102112.00
2018-09-26T03:05:51.502Z,102106.00
2018-09-26T03:08:19.057Z,102103.00
2018-09-26T03:10:46.679Z,102105.00
2018-09-26T03:13:16.518Z,102099.00
2018-09-26T03:15:44.084Z,102101.00
2018-09-26T03:18:11.995Z,102098.00
2018-09-26T03:20:39.543Z,102100.00
2018-09-26T03:23:30.506Z,102096.00
2018-09-26T03:26:07.008Z,102093.00
2018-09-26T03:28:34.880Z,102093.00
2018-09-26T03:31:02.551Z,102083.00
2018-09-26T03:33:30.332Z,102082.00
2018-09-26T03:35:57.984Z,102082.00
2018-09-26T03:38:26.243Z,102081.00
2018-09-26T03:40:53.932Z,102081.00
2018-09-26T03:43:21.855Z,102072.00
2018-09-26T03:45:49.529Z,102068.00
2018-09-26T03:48:17.166Z,102061.00
2018-09-26T03:50:45.155Z,102062.00
2018-09-26T03:53:12.799Z,102065.00
2018-09-26T03:55:40.472Z,102068.00
2018-09-26T03:58:08.357Z,102068.00
2018-09-26T04:00:35.977Z,102072.00
2018-09-26T04:03:03.642Z,102080.00
2018-09-26T04:05:31.690Z,102073.00
2018-09-26T04:07:59.348Z,102076.00
2018-09-26T04:10:26.981Z,102086.00
2018-09-26T04:12:55.642Z,102081.00
2018-09-26T04:15:23.286Z,102076.00
2018-09-26T04:17:50.945Z,102069.00
2018-09-26T04:20:18.938Z,102065.00
2018-09-26T04:22:46.613Z,102066.00
2018-09-26T04:25:14.353Z,102064.00
2018-09-26T04:27:42.299Z,102073.00
2018-09-26T04:30:09.922Z,102074.00
2018-09-26T04:32:37.736Z,102071.00
2018-09-26T04:35:05.563Z,102077.00
2018-09-26T04:37:33.476Z,102082.00
2018-09-26T04:40:01.183Z,102080.00
2018-09-26T04:42:29.381Z,102080.00
2018-09-26T04:44:57.060Z,102077.00
2018-09-26T04:47:24.749Z,102078.00
2018-09-26T04:49:52.864Z,102075.00
2018-09-26T04:52:20.519Z,102074.00
2018-09-26T04:54:48.193Z,102075.00
2018-09-26T04:57:15.881Z,102065.00
2018-09-26T04:59:43.598Z,102065.00
2018-09-26T05:02:11.252Z,102071.00
2018-09-26T05:04:39.180Z,102073.00
2018-09-26T05:07:06.903Z,102069.00
2018-09-26T05:09:34.908Z,102075.00
2018-09-26T05:12:02.634Z,102064.00
2018-09-26T05:14:30.647Z,102060.00
2018-09-26T05:16:58.855Z,102048.00
2018-09-26T05:19:26.537Z,102048.00
2018-09-26T05:21:54.183Z,102042.00
2018-09-26T05:24:22.148Z,102043.00
2018-09-26T05:26:49.788Z,102034.00
2018-09-26T05:29:17.444Z,102035.00
2018-09-26T05:31:45.357Z,102027.00
2018-09-26T05:34:13.024Z,102027.00
2018-09-26T05:36:40.701Z,102034.00
2018-09-26T05:39:10.108Z,102040.00
2018-09-26T05:41:37.907Z,102045.00
2018-09-26T05:44:05.548Z,102053.00
2018-09-26T05:46:33.519Z,102041.00
2018-09-26T05:49:01.170Z,102046.00
2018-09-26T05:51:28.964Z,102052.00
2018-09-26T05:53:56.918Z,102056.00
2018-09-26T05:56:24.658Z,102050.00
2018-09-26T05:58:52.573Z,102040.00
2018-09-26T06:01:20.160Z,102035.00
2018-09-26T06:03:47.744Z,102036.00
2018-09-26T06:06:15.560Z,102044.00
2018-09-26T06:08:43.154Z,102035.00
2018-09-26T06:11:10.746Z,102022.00
2018-09-26T06:13:38.869Z,102014.00
2018-09-26T06:16:06.950Z,102013.00
2018-09-26T06:18:34.532Z,102011.00
2018-09-26T06:21:02.485Z,102008.00
2018-09-26T06:23:30.081Z,102006.00
2018-09-26T06:25:57.629Z,102000.00
2018-09-26T06:28:25.489Z,101991.00
2018-09-26T06:30:53.064Z,101996.00
2018-09-26T06:33:20.778Z,101988.00
2018-09-26T06:35:48.593Z,101985.00
2018-09-26T06:38:16.188Z,101979.00
2018-09-26T06:40:43.769Z,101974.00
2018-09-26T06:43:11.730Z,101968.00
2018-09-26T06:45:39.369Z,101959.00
2018-09-26T06:48:06.921Z,101953.00
2018-09-26T06:50:34.723Z,101949.00
2018-09-26T06:53:02.264Z,101948.00
2018-09-26T06:55:29.918Z,101966.00
2018-09-26T06:57:57.738Z,101969.00
2018-09-26T07:00:25.485Z,101972.00
2018-09-26T07:02:53.025Z,101980.00
2018-09-26T07:05:20.929Z,101980.00
2018-09-26T07:10:24.660Z,101963.00
2018-09-26T07:12:52.233Z,101960.00
2018-09-26T07:15:19.803Z,101961.00
2018-09-26T07:17:48.119Z,101971.00
2018-09-26T07:20:15.667Z,101970.00
2018-09-26T07:22:43.513Z,101972.00
2018-09-26T07:25:11.093Z,101968.00
2018-09-26T07:27:38.681Z,101965.00
2018-09-26T07:30:06.691Z,101962.00
2018-09-26T07:32:34.250Z,101959.00
2018-09-26T07:35:01.816Z,101967.00
2018-09-26T07:37:29.605Z,101971.00
2018-09-26T07:39:57.224Z,101976.00
2018-09-26T07:42:24.790Z,101970.00
2018-09-26T07:44:52.481Z,101966.00
2018-09-26T07:47:20.029Z,101970.00
2018-09-26T07:49:47.540Z,101974.00
2018-09-26T07:52:15.391Z,101973.00
2018-09-26T07:54:42.929Z,101971.00
2018-09-26T07:57:10.532Z,101972.00
2018-09-26T07:59:38.408Z,101956.00
2018-09-26T08:02:05.996Z,101959.00
2018-09-26T08:04:33.503Z,101954.00
2018-09-26T08:07:01.901Z,101955.00
2018-09-26T08:09:29.465Z,101951.00
2018-09-26T08:11:57.007Z,101948.00
2018-09-26T08:14:24.930Z,101949.00
2018-09-26T08:16:52.498Z,101951.00
2018-09-26T08:19:20.534Z,101939.00
2018-09-26T08:21:48.077Z,101932.00
2018-09-26T08:24:15.640Z,101931.00
2018-09-26T08:26:43.229Z,101914.00
2018-09-26T08:29:10.808Z,101914.00
2018-09-26T08:31:38.440Z,101915.00
2018-09-26T08:34:06.638Z,101909.00
2018-09-26T08:36:34.253Z,101906.00
2018-09-26T08:39:01.797Z,101907.00
2018-09-26T08:41:29.672Z,101904.00
2018-09-26T08:43:57.224Z,101899.00
2018-09-26T08:46:24.748Z,101890.00
2018-09-26T08:48:52.441Z,101891.00
2018-09-26T08:51:19.976Z,101882.00
2018-09-26T08:53:47.543Z,101873.00
2018-09-26T08:56:15.569Z,101865.00
2018-09-26T08:58:43.129Z,101868.00
2018-09-26T09:01:16.692Z,101862.00
2018-09-26T09:03:44.244Z,101850.00
2018-09-26T09:06:11.798Z,101846.00
2018-09-26T09:08:39.825Z,101852.00
2018-09-26T09:11:07.377Z,101851.00
2018-09-26T09:13:34.940Z,101850.00
2018-09-26T09:16:02.758Z,101853.00
2018-09-26T09:18:30.305Z,101847.00
2018-09-26T09:20:58.508Z,101847.00
2018-09-26T09:23:26.241Z,101846.00
2018-09-26T09:25:53.796Z,101838.00
2018-09-26T09:28:21.365Z,101843.00
2018-09-26T09:30:49.257Z,101845.00
2018-09-26T09:35:50.515Z,101840.00
2018-09-26T09:38:18.076Z,101845.00
2018-09-26T09:40:45.577Z,101842.00
2018-09-26T09:43:13.532Z,101839.00
2018-09-26T09:45:41.105Z,101845.00
2018-09-26T09:48:08.651Z,101843.00
2018-09-26T09:50:36.639Z,101840.00
2018-09-26T09:53:04.205Z,101841.00
2018-09-26T09:55:31.777Z,101841.00
2018-09-26T09:57:59.542Z,101833.00
2018-09-26T10:00:32.926Z,101824.00
2018-09-26T10:03:00.973Z,101811.00
2018-09-26T10:05:28.495Z,101814.00
2018-09-26T10:07:56.373Z,101804.00
2018-09-26T10:10:24.716Z,101804.00
2018-09-26T10:12:52.257Z,101793.00
2018-09-26T10:15:19.832Z,101781.00
2018-09-26T10:17:47.629Z,101781.00
2018-09-26T10:20:15.234Z,101766.00
2018-09-26T10:22:43.104Z,101766.00
2018-09-26T10:25:11.083Z,101762.00
2018-09-26T10:27:38.674Z,101759.00
2018-09-26T10:30:06.890Z,101759.00
2018-09-26T10:32:34.765Z,101752.00
2018-09-26T10:35:02.499Z,101758.00
2018-09-26T10:37:30.067Z,101759.00
2018-09-26T10:39:57.762Z,101753.00
2018-09-26T10:42:25.302Z,101745.00
2018-09-26T10:44:52.829Z,101745.00
2018-09-26T10:47:20.653Z,101741.00
2018-09-26T10:49:48.756Z,101747.00
2018-09-26T10:52:16.328Z,101753.00
2018-09-26T10:54:44.149Z,101757.00
2018-09-26T10:57:11.661Z,101743.00
2018-09-26T10:59:39.172Z,101740.00
2018-09-26T11:02:07.286Z,101737.00
2018-09-26T11:04:34.829Z,101728.00
2018-09-26T11:07:02.371Z,101727.00
2018-09-26T11:09:30.116Z,101720.00
2018-09-26T11:11:57.629Z,101712.00
2018-09-26T11:14:25.321Z,101715.00
2018-09-26T11:16:53.086Z,101704.00
2018-09-26T11:19:20.682Z,101708.00
2018-09-26T11:21:48.197Z,101714.00
2018-09-26T11:24:16.702Z,101710.00
2018-09-26T11:26:44.415Z,101697.00
2018-09-26T11:29:12.009Z,101695.00
2018-09-26T11:31:39.788Z,101690.00
2018-09-26T11:34:07.423Z,101696.00
2018-09-26T11:36:35.237Z,101689.00
2018-09-26T11:39:03.909Z,101676.00
2018-09-26T11:41:31.512Z,101680.00
2018-09-26T11:43:59.219Z,101684.00
2018-09-26T11:46:26.773Z,101682.00
2018-09-26T11:48:54.288Z,101670.00
2018-09-26T11:51:22.141Z,101662.00
2018-09-26T11:53:49.772Z,101655.00
2018-09-26T11:56:17.320Z,101649.00
2018-09-26T11:58:44.882Z,101646.00
2018-09-26T12:01:12.917Z,101638.00
2018-09-26T12:03:40.487Z,101645.00
2018-09-26T12:06:08.121Z,101640.00
2018-09-26T12:08:35.826Z,101635.00
2018-09-26T12:11:03.375Z,101631.00
2018-09-26T12:13:30.898Z,101636.00
2018-09-26T12:15:58.534Z,101628.00
2018-09-26T12:18:26.147Z,101623.00
2018-09-26T12:20:53.661Z,101624.00
2018-09-26T12:23:21.427Z,101619.00
2018-09-26T12:25:49.100Z,101619.00
2018-09-26T12:28:16.894Z,101612.00
2018-09-26T12:30:44.393Z,101609.00
2018-09-26T12:33:12.054Z,101602.00
2018-09-26T12:35:39.681Z,101592.00
2018-09-26T12:38:07.249Z,101601.00
2018-09-26T12:40:34.819Z,101593.00
2018-09-26T12:43:02.462Z,101589.00
2018-09-26T12:45:30.021Z,101569.00
2018-09-26T12:47:57.552Z,101570.00
2018-09-26T12:50:25.465Z,101567.00
2018-09-26T12:52:53.408Z,101560.00
2018-09-26T12:55:21.408Z,101564.00
2018-09-26T12:57:49.173Z,101558.00
2018-09-26T13:00:16.763Z,101558.00
2018-09-26T13:02:44.340Z,101546.00
2018-09-26T13:05:14.322Z,101543.00
2018-09-26T13:07:41.978Z,101538.00
2018-09-26T13:10:09.579Z,101539.00
2018-09-26T13:12:37.423Z,101535.00
2018-09-26T13:15:05.737Z,101533.00
2018-09-26T13:17:33.623Z,101532.00
2018-09-26T13:20:01.155Z,101523.00
2018-09-26T13:22:28.694Z,101528.00
2018-09-26T13:24:56.323Z,101517.00
2018-09-26T13:27:25.239Z,101519.00
2018-09-26T13:29:52.778Z,101515.00
2018-09-26T13:32:20.640Z,101512.00
2018-09-26T13:34:48.128Z,101513.00
2018-09-26T13:37:15.715Z,101509.00
2018-09-26T13:39:43.825Z,101506.00
2018-09-26T13:42:11.444Z,101502.00
2018-09-26T13:44:38.917Z,101504.00
2018-09-26T13:47:06.613Z,101503.00
2018-09-26T13:49:35.301Z,101494.00
2018-09-26T13:52:03.058Z,101489.00
2018-09-26T13:54:31.913Z,101490.00
2018-09-26T13:56:59.453Z,101485.00
2018-09-26T13:59:27.177Z,101486.00
2018-09-26T14:01:54.826Z,101480.00
2018-09-26T14:04:22.561Z,101476.00
2018-09-26T14:06:50.294Z,101475.00
2018-09-26T14:09:17.917Z,101474.00
2018-09-26T14:11:45.470Z,101472.00
2018-09-26T14:14:13.437Z,101472.00
2018-09-26T14:16:40.933Z,101473.00
2018-09-26T14:19:08.512Z,101467.00
2018-09-26T14:21:38.043Z,101462.00
2018-09-26T14:24:06.372Z,101460.00
2018-09-26T14:26:34.721Z,101456.00
2018-09-26T14:29:03.401Z,101453.00
2018-09-26T14:31:31.991Z,101443.00
2018-09-26T14:33:59.914Z,101431.00
2018-09-26T14:36:28.143Z,101428.00
2018-09-26T14:38:56.835Z,101424.00
2018-09-26T14:41:25.499Z,101417.00
2018-09-26T14:43:53.479Z,101412.00
2018-09-26T14:46:21.377Z,101420.00
2018-09-26T14:48:49.559Z,101410.00
2018-09-26T14:51:17.592Z,101405.00
2018-09-26T14:53:45.604Z,101398.00
2018-09-26T14:56:13.670Z,101400.00
2018-09-26T14:58:41.583Z,101402.00
2018-09-26T15:01:09.874Z,101399.00
2018-09-26T15:03:38.153Z,101400.00
2018-09-26T15:06:06.128Z,101398.00
2018-09-26T15:08:34.239Z,101400.00
2018-09-26T15:11:02.170Z,101398.00
2018-09-26T15:13:30.106Z,101395.00
2018-09-26T15:15:58.401Z,101391.00
2018-09-26T15:18:26.345Z,101395.00
2018-09-26T15:20:54.289Z,101386.00
2018-09-26T15:23:22.534Z,101384.00
2018-09-26T15:25:50.442Z,101380.00
2018-09-26T15:28:18.397Z,101386.00
2018-09-26T15:30:47.493Z,101390.00
2018-09-26T15:33:15.461Z,101390.00
2018-09-26T15:35:43.400Z,101394.00
2018-09-26T15:38:11.826Z,101393.00
2018-09-26T15:41:59.051Z,101400.00
2018-09-26T15:44:27.395Z,101400.00
2018-09-26T15:46:55.334Z,101401.00
2018-09-26T15:49:23.473Z,101400.00
2018-09-26T15:51:51.496Z,101397.00
2018-09-26T15:54:19.526Z,101399.00
2018-09-26T15:56:47.675Z,101396.00
2018-09-26T15:59:15.654Z,101395.00
2018-09-26T16:01:43.620Z,101398.00
2018-09-26T16:04:24.644Z,101405.00
2018-09-26T16:06:52.264Z,101404.00
2018-09-26T16:09:20.202Z,101413.00
2018-09-26T16:11:47.757Z,101413.00
2018-09-26T16:14:15.401Z,101411.00
2018-09-26T16:16:43.315Z,101407.00
2018-09-26T16:19:10.971Z,101402.00
2018-09-26T16:21:38.520Z,101389.00
2018-09-26T16:24:06.395Z,101387.00
2018-09-26T16:26:33.925Z,101391.00
2018-09-26T16:29:01.661Z,101388.00
2018-09-26T16:31:29.748Z,101396.00
2018-09-26T16:33:57.287Z,101395.00
2018-09-26T16:36:25.364Z,101395.00
2018-09-26T16:38:52.815Z,101399.00
2018-09-26T16:41:20.475Z,101391.00
2018-09-26T16:43:48.384Z,101393.00
2018-09-26T16:46:16.000Z,101393.00
2018-09-26T16:48:43.749Z,101394.00
2018-09-26T16:51:11.492Z,101388.00
2018-09-26T16:53:39.166Z,101391.00
2018-09-26T16:56:07.083Z,101392.00
2018-09-26T16:58:35.004Z,101390.00
2018-09-26T17:01:02.581Z,101391.00
2018-09-26T17:03:30.162Z,101391.00
2018-09-26T17:05:57.759Z,101382.00
2018-09-26T17:08:25.369Z,101375.00
2018-09-26T17:10:52.968Z,101374.00
2018-09-26T17:13:20.565Z,101370.00
2018-09-26T17:15:48.496Z,101369.00
2018-09-26T17:18:16.230Z,101369.00
2018-09-26T17:20:43.758Z,101366.00
2018-09-26T17:23:11.809Z,101368.00
2018-09-26T17:25:39.424Z,101377.00
2018-09-26T17:28:07.021Z,101381.00
2018-09-26T17:30:34.570Z,101382.00
2018-09-26T17:33:02.613Z,101380.00
2018-09-26T17:35:30.514Z,101382.00
2018-09-26T17:37:58.228Z,101390.00
2018-09-26T17:40:25.813Z,101389.00
2018-09-26T17:42:53.462Z,101393.00
2018-09-26T17:45:21.055Z,101388.00
2018-09-26T17:47:48.590Z,101389.00
2018-09-26T17:50:16.243Z,101387.00
2018-09-26T17:52:43.818Z,101389.00
2018-09-26T17:55:11.445Z,101388.00
2018-09-26T17:57:39.224Z,101393.00
2018-09-26T18:00:07.258Z,101394.00
2018-09-26T18:02:34.889Z,101401.00
2018-09-26T18:05:11.937Z,101398.00
2018-09-26T18:07:39.877Z,101397.00
2018-09-26T18:10:28.980Z,101401.00
2018-09-26T18:12:56.560Z,101403.00
2018-09-26T18:15:24.164Z,101402.00
2018-09-26T18:17:51.965Z,101404.00
2018-09-26T18:20:19.549Z,101401.00
2018-09-26T18:22:47.158Z,101399.00
2018-09-26T18:25:14.872Z,101395.00
2018-09-26T18:27:42.538Z,101399.00
2018-09-26T18:30:10.072Z,101398.00
2018-09-26T18:32:38.493Z,101394.00
2018-09-26T18:35:06.240Z,101394.00
2018-09-26T18:37:34.105Z,101391.00
2018-09-26T18:40:01.903Z,101388.00
2018-09-26T18:42:29.506Z,101390.00
2018-09-26T18:44:57.075Z,101381.00
2018-09-26T18:47:24.777Z,101385.00
2018-09-26T18:49:52.369Z,101389.00
2018-09-26T18:52:19.972Z,101385.00
2018-09-26T18:54:47.914Z,101392.00
2018-09-26T18:57:15.512Z,101390.00
2018-09-26T18:59:43.261Z,101390.00
2018-09-26T19:02:10.845Z,101389.00
2018-09-26T19:04:38.464Z,101385.00
2018-09-26T19:07:06.119Z,101385.00
2018-09-26T19:09:35.238Z,101384.00
2018-09-26T19:12:02.848Z,101386.00
2018-09-26T19:14:30.374Z,101384.00
2018-09-26T19:16:58.349Z,101383.00
2018-09-26T19:19:25.937Z,101382.00
2018-09-26T19:21:53.568Z,101386.00
2018-09-26T19:24:21.349Z,101389.00
2018-09-26T19:26:48.992Z,101391.00
2018-09-26T19:29:16.584Z,101392.00
2018-09-26T19:31:44.453Z,101392.00
2018-09-26T19:34:12.057Z,101394.00
2018-09-26T19:36:40.000Z,101395.00
2018-09-26T19:39:09.219Z,101391.00
2018-09-26T19:41:36.748Z,101385.00
2018-09-26T19:44:04.628Z,101401.00
2018-09-26T19:46:32.209Z,101398.00
2018-09-26T19:48:59.812Z,101398.00
2018-09-26T19:51:27.735Z,101401.00
2018-09-26T19:53:55.339Z,101405.00
2018-09-26T19:56:23.335Z,101401.00
2018-09-26T19:58:50.886Z,101407.00
2018-09-26T20:01:18.505Z,101402.00
2018-09-26T20:03:46.347Z,101407.00
2018-09-26T20:06:13.927Z,101402.00
2018-09-26T20:08:41.495Z,101401.00
2018-09-26T20:11:09.514Z,101406.00
2018-09-26T20:13:37.098Z,101405.00
2018-09-26T20:16:04.665Z,101404.00
2018-09-26T20:18:32.503Z,101405.00
2018-09-26T20:21:00.127Z,101405.00
2018-09-26T20:23:27.922Z,101406.00
2018-09-26T20:25:55.401Z,101404.00
2018-09-26T20:28:23.008Z,101403.00
2018-09-26T20:30:50.689Z,101409.00
2018-09-26T20:33:18.518Z,101405.00
2018-09-26T20:35:46.136Z,101403.00
2018-09-26T20:38:13.704Z,101400.00
2018-09-26T20:40:42.417Z,101398.00
2018-09-26T20:43:09.986Z,101402.00
2018-09-26T20:45:37.673Z,101402.00
2018-09-26T20:48:05.517Z,101400.00
2018-09-26T20:50:33.110Z,101402.00
2018-09-26T20:53:00.696Z,101414.00
2018-09-26T20:55:28.733Z,101417.00
2018-09-26T20:57:56.334Z,101415.00
2018-09-26T21:00:23.978Z,101410.00
2018-09-26T21:02:51.732Z,101411.00
2018-09-26T21:05:19.403Z,101411.00
2018-09-26T21:07:47.191Z,101411.00
2018-09-26T21:10:14.914Z,101415.00
2018-09-26T21:12:42.749Z,101412.00
2018-09-26T21:15:12.286Z,101417.00
2018-09-26T21:17:40.573Z,101418.00
2018-09-26T21:20:08.207Z,101419.00
2018-09-26T21:22:35.837Z,101416.00
2018-09-26T21:25:04.008Z,101418.00
2018-09-26T21:27:31.668Z,101417.00
2018-09-26T21:29:59.332Z,101419.00
2018-09-26T21:32:27.416Z,101415.00
2018-09-26T21:34:55.099Z,101410.00
2018-09-26T21:37:22.836Z,101410.00
2018-09-26T21:39:50.821Z,101405.00
2018-09-26T21:42:19.117Z,101404.00
2018-09-26T21:44:46.796Z,101409.00
2018-09-26T21:47:14.804Z,101411.00
2018-09-26T21:49:42.519Z,101406.00
2018-09-26T21:52:10.178Z,101409.00
2018-09-26T21:54:38.038Z,101413.00
2018-09-26T21:57:06.074Z,101409.00
2018-09-26T21:59:33.781Z,101407.00
2018-09-26T22:02:01.522Z,101405.00
2018-09-26T22:04:29.165Z,101410.00
2018-09-26T22:06:56.863Z,101418.00
2018-09-26T22:09:24.430Z,101419.00
2018-09-26T22:11:52.055Z,101416.00
2018-09-26T22:14:19.778Z,101411.00
2018-09-26T22:16:47.356Z,101413.00
2018-09-26T22:19:15.043Z,101410.00
2018-09-26T22:21:42.868Z,101412.00
2018-09-26T22:24:10.472Z,101412.00
2018-09-26T22:26:38.049Z,101410.00
2018-09-26T22:29:05.712Z,101409.00
2018-09-26T22:31:33.341Z,101406.00
2018-09-26T22:34:00.946Z,101394.00
2018-09-26T22:36:28.585Z,101392.00
2018-09-26T22:38:56.103Z,101393.00
2018-09-26T22:41:24.229Z,101392.00
2018-09-26T22:43:51.989Z,101390.00
2018-09-26T22:46:19.626Z,101389.00
2018-09-26T22:48:47.195Z,101375.00
2018-09-26T22:51:14.926Z,101381.00
2018-09-26T22:53:42.509Z,101379.00
2018-09-26T22:56:10.057Z,101381.00
2018-09-26T22:58:37.925Z,101384.00
2018-09-26T23:01:05.513Z,101388.00
2018-09-26T23:03:33.140Z,101387.00
2018-09-26T23:06:01.314Z,101379.00
2018-09-26T23:08:28.873Z,101377.00
2018-09-26T23:10:56.485Z,101376.00
2018-09-26T23:13:24.331Z,101371.00
2018-09-26T23:15:51.975Z,101371.00
2018-09-26T23:18:20.107Z,101362.00
2018-09-26T23:20:47.705Z,101359.00
2018-09-26T23:23:15.515Z,101359.00
2018-09-26T23:25:43.161Z,101364.00
2018-09-26T23:28:10.744Z,101365.00
2018-09-26T23:30:38.304Z,101365.00
2018-09-26T23:33:05.829Z,101365.00
2018-09-26T23:35:33.639Z,101366.00
2018-09-26T23:38:01.273Z,101368.00
2018-09-26T23:40:28.868Z,101362.00
2018-09-26T23:42:56.475Z,101359.00
2018-09-26T23:45:34.645Z,101356.00
2018-09-26T23:48:08.716Z,101358.00
2018-09-26T23:50:36.297Z,101351.00
2018-09-26T23:53:07.232Z,101363.00
2018-09-26T23:55:36.093Z,101361.00
2018-09-26T23:58:11.236Z,101357.00
